Portada
METAR-TAF:

METAR-TAF

Aeroports :

Iakutsk, Rússia

latitud: 62-01N, longitud: 129-43E, altitud: 103 m

Observació

L'informe es va fer fa 36 minuts, a les 18:30 UTC
Vent 8 kt del Nord-Oest
Temperatura 12°C
Humitat 88%
Pressió 1006 hPa
Visibilitat 10 km o més
sense núvols per sota de 1500 mi sense presència de cumulonimbus.

METAR: UEEE 251830Z 31004MPS CAVOK 12/10 Q1006 R23L/09//60 NOSIG RMK QFE746

Hora: 04:06 (19:06 UTC)

Pronòstic

L'informe es va fer fa 2 hores i 6 minuts, a les 17:00 UTC
Pronòstic vàlid del 25 a les 18 UTC al 26 a les 24 UTC
Vent 10 kt del Oest/Nord-Oest
Visibilitat 10 km o més
Núvols disperses a una alçada de 3000 ft, Cumulonimbus.
Temporalment
l' 25 a les 18 UTC al 25 a les 24 UTC
Visibilitat: 0300 m
a una alçada de 300 ft
boira

TAF: UEEE 251700Z 2518/2624 30005MPS 9999 SCT030CB TEMPO 2518/2524 0300 FG VV003

Observacions i pronòstics meteorològics de més de 4000 aeroports (METAR i TAF).

Les estacions disponibles són els punts grocs i vermells al mapa.

Posi el ratolí al punt desitjat per veure el nom de l'estació.

Feu clic per veure les observacions i els pronòstics meteorològics.

Per canviar el mapa: feu clic els botons verds amb una creu de color negre per apropar; al botó verd amb un guió per allunyar la imatge; o en les fletxes verdes per a mapes adjacents.


METAR-TAF: